Time;durP1;ratioP1;P1;durP2;ratioP2;P2;SDS_P1;SDS_P2;PMS_P1;PMS_P2;Temp;Humidity;BMP_temperature;BMP_pressure;BME280_temperature;BME280_humidity;BME280_pressure;Samples;Min_cycle;Max_cycle;Signal;HPM_P1;HPM_P2
2020/12/10 00:00:52;;;;;;;10.98;6.25;;;;;;;1.79;49.28;101685.36;1771695;81;21337;-81
2020/12/10 00:03:25;;;;;;;11.50;5.67;;;;;;;1.80;49.36;101672.53;1771870;80;21490;-81
2020/12/10 00:06:05;;;;;;;10.23;6.53;;;;;;;1.84;49.49;101678.06;1747699;81;21158;-82
2020/12/10 00:08:51;;;;;;;14.33;6.10;;;;;;;1.88;49.62;101670.39;1771298;80;21075;-82
2020/12/10 00:11:46;;;;;;;9.45;5.30;;;;;;;1.93;49.78;101674.98;1771863;80;21142;-83
2020/12/10 00:14:14;;;;;;;14.55;7.05;;;;;;;1.95;49.86;101682.39;1771842;80;21370;-82
2020/12/10 00:16:49;;;;;;;11.75;5.62;;;;;;;1.94;49.92;101675.84;1773604;81;21194;-80
2020/12/10 00:19:17;;;;;;;15.83;6.67;;;;;;;1.95;49.95;101664.34;1774852;81;21530;-81
2020/12/10 00:21:45;;;;;;;11.60;7.00;;;;;;;2.02;49.92;101661.80;1775577;78;21103;-80
2020/12/10 00:24:13;;;;;;;11.60;6.62;;;;;;;2.07;49.61;101667.72;1775639;78;21063;-81
2020/12/10 00:26:41;;;;;;;13.30;6.55;;;;;;;2.06;49.48;101667.34;1772959;80;21356;-83
2020/12/10 00:29:09;;;;;;;13.05;6.95;;;;;;;2.01;49.45;101670.20;1772235;81;21091;-81
2020/12/10 00:31:39;;;;;;;14.33;7.17;;;;;;;1.96;49.59;101659.00;1772300;81;21141;-82
2020/12/10 00:34:08;;;;;;;10.23;6.15;;;;;;;2.02;49.62;101655.20;1772922;81;21110;-81
2020/12/10 00:36:36;;;;;;;13.62;7.28;;;;;;;2.09;49.51;101651.78;1772793;81;21105;-81
2020/12/10 00:39:05;;;;;;;16.93;6.40;;;;;;;2.12;49.49;101641.07;1772915;81;21806;-79
2020/12/10 00:41:33;;;;;;;16.57;8.13;;;;;;;2.16;49.43;101639.52;1773300;81;21117;-81
2020/12/10 00:44:05;;;;;;;16.17;7.47;;;;;;;2.20;49.54;101639.77;1772487;80;21058;-81
2020/12/10 00:46:33;;;;;;;14.40;7.67;;;;;;;2.17;49.62;101638.58;1772091;80;21062;-83
2020/12/10 00:49:01;;;;;;;13.95;7.72;;;;;;;2.11;49.86;101647.30;1772381;81;21063;-81
2020/12/10 00:51:29;;;;;;;18.75;7.55;;;;;;;2.03;50.05;101647.19;1772563;81;21264;-82
2020/12/10 00:53:57;;;;;;;10.55;6.28;;;;;;;2.01;50.23;101633.20;1772135;81;21151;-81
2020/12/10 00:56:25;;;;;;;8.95;4.72;;;;;;;2.05;50.48;101627.31;1772136;80;21106;-82
2020/12/10 00:58:53;;;;;;;10.53;7.33;;;;;;;2.10;50.57;101637.66;1752495;81;21157;-83
2020/12/10 01:01:21;;;;;;;9.63;5.80;;;;;;;2.09;50.57;101627.99;1752708;81;21075;-83
2020/12/10 01:03:49;;;;;;;11.50;6.80;;;;;;;2.12;50.48;101624.74;1771899;80;21367;-83
2020/12/10 01:06:18;;;;;;;15.35;7.53;;;;;;;2.17;50.24;101624.52;1772165;80;21146;-85
2020/12/10 01:08:45;;;;;;;16.42;7.42;;;;;;;2.19;50.14;101628.81;1772068;81;21083;-82
2020/12/10 01:11:13;;;;;;;12.93;6.90;;;;;;;2.19;50.11;101616.91;1772065;81;21104;-83
2020/12/10 01:13:41;;;;;;;11.85;6.30;;;;;;;2.16;50.21;101614.41;1772127;80;21050;-82
2020/12/10 01:16:09;;;;;;;11.83;6.72;;;;;;;2.21;50.36;101614.19;1772999;81;21800;-83
2020/12/10 01:18:37;;;;;;;13.62;6.50;;;;;;;2.23;50.39;101608.38;1772077;80;21126;-80
2020/12/10 01:21:17;;;;;;;;;;;;;;;;;;;;;
2020/12/10 01:23:49;;;;;;;12.45;7.45;;;;;;;2.28;50.63;101608.52;1754790;81;21544;-83
2020/12/10 01:26:17;;;;;;;12.98;6.62;;;;;;;2.32;50.52;101592.48;1772337;80;21254;-83
2020/12/10 01:28:45;;;;;;;10.68;5.15;;;;;;;2.33;50.64;101591.58;1772149;81;21378;-82
2020/12/10 01:31:13;;;;;;;14.53;8.43;;;;;;;2.33;50.57;101588.94;1772168;80;21078;-80
2020/12/10 01:33:42;;;;;;;10.48;5.95;;;;;;;2.33;50.56;101592.43;1751247;81;21070;-82
2020/12/10 01:36:11;;;;;;;10.93;7.28;;;;;;;2.34;50.58;101592.81;1772667;80;21055;-83
2020/12/10 01:38:39;;;;;;;11.53;6.35;;;;;;;2.34;50.39;101582.23;1752922;81;21064;-82
2020/12/10 01:41:07;;;;;;;14.30;7.00;;;;;;;2.37;50.18;101575.48;1772859;81;21316;-83
2020/12/10 01:43:35;;;;;;;13.83;7.22;;;;;;;2.39;49.97;101583.33;1772190;80;21142;-81
2020/12/10 01:46:03;;;;;;;12.55;7.53;;;;;;;2.38;49.67;101571.89;1772316;81;21047;-81
2020/12/10 01:48:32;;;;;;;12.55;6.80;;;;;;;2.16;50.00;101589.30;1772809;81;21514;-79
2020/12/10 01:51:00;;;;;;;15.03;7.35;;;;;;;2.11;50.01;101597.92;1772479;81;21141;-80
2020/12/10 01:53:28;;;;;;;13.05;7.42;;;;;;;2.07;50.14;101591.08;1773249;80;21871;-79
2020/12/10 01:55:56;;;;;;;16.30;6.60;;;;;;;2.05;50.21;101593.43;1772861;81;21126;-81
2020/12/10 01:58:24;;;;;;;11.35;6.62;;;;;;;1.92;50.39;101592.70;1772204;81;21110;-84
2020/12/10 02:00:52;;;;;;;13.93;6.75;;;;;;;1.98;50.26;101600.31;1771829;81;21521;-81
2020/12/10 02:03:20;;;;;;;16.77;7.75;;;;;;;2.00;50.29;101611.69;1771861;81;21059;-81
2020/12/10 02:05:48;;;;;;;14.43;6.87;;;;;;;1.98;50.44;101596.82;1772170;80;21804;-83
2020/12/10 02:08:15;;;;;;;13.25;6.55;;;;;;;2.01;50.47;101605.45;1772165;80;21138;-82
2020/12/10 02:10:43;;;;;;;11.45;6.67;;;;;;;2.01;50.29;101601.96;1772126;80;21916;-85
2020/12/10 02:13:11;;;;;;;14.95;7.17;;;;;;;1.98;50.32;101613.52;1772498;80;21063;-86
2020/12/10 02:15:39;;;;;;;12.63;6.62;;;;;;;1.97;50.29;101611.82;1772798;81;21067;-83
2020/12/10 02:18:07;;;;;;;12.95;7.28;;;;;;;1.96;50.27;101612.76;1772777;81;21368;-82
2020/12/10 02:20:35;;;;;;;11.63;6.50;;;;;;;1.94;50.24;101615.92;1728348;81;21173;-81
2020/12/10 02:23:05;;;;;;;12.35;7.30;;;;;;;1.91;50.22;101617.41;1772281;81;21074;-81
2020/12/10 02:25:33;;;;;;;12.43;6.87;;;;;;;1.86;50.29;101624.67;1772675;80;21078;-83
2020/12/10 02:28:08;;;;;;;10.60;6.08;;;;;;;1.84;50.37;101627.88;1772370;80;21066;-85
2020/12/10 02:30:36;;;;;;;15.90;7.65;;;;;;;1.84;50.35;101621.27;1773118;80;21359;-82
2020/12/10 02:33:05;;;;;;;14.53;7.78;;;;;;;1.83;50.29;101614.75;1772943;81;21204;-82
2020/12/10 02:35:34;;;;;;;13.68;6.90;;;;;;;1.87;50.33;101614.52;1772705;81;21052;-82
2020/12/10 02:38:06;;;;;;;14.68;7.67;;;;;;;1.95;50.32;101612.81;1771201;81;21197;-81
2020/12/10 02:40:37;;;;;;;11.50;7.08;;;;;;;1.97;50.21;101607.86;1771380;81;21217;-79
2020/12/10 02:43:05;;;;;;;12.40;5.95;;;;;;;1.96;50.23;101619.36;1772109;80;21355;-84
2020/12/10 02:45:33;;;;;;;15.05;6.95;;;;;;;1.91;50.38;101618.73;1772469;80;21098;-84
2020/12/10 02:48:02;;;;;;;13.05;7.25;;;;;;;1.86;49.95;101610.61;1772074;81;21047;-84
2020/12/10 02:50:29;;;;;;;16.23;7.70;;;;;;;1.69;50.10;101607.48;1772263;80;21037;-85
2020/12/10 02:52:58;;;;;;;15.03;8.40;;;;;;;1.57;50.41;101601.45;1772439;81;21090;-82
2020/12/10 02:55:25;;;;;;;14.33;7.67;;;;;;;1.57;50.38;101602.30;1772729;81;21812;-80
2020/12/10 02:57:53;;;;;;;11.97;7.40;;;;;;;1.56;50.42;101605.88;1771169;81;21082;-82
2020/12/10 03:00:22;;;;;;;12.90;6.70;;;;;;;1.50;50.46;101608.83;1770994;80;21525;-83
2020/12/10 03:02:50;;;;;;;15.50;7.97;;;;;;;1.48;50.59;101610.19;1770548;81;21178;-83
2020/12/10 03:05:18;;;;;;;11.90;6.78;;;;;;;1.55;50.70;101611.25;1770274;81;21186;-81
2020/12/10 03:07:46;;;;;;;17.20;7.83;;;;;;;1.59;50.67;101612.79;1770466;80;21794;-83
2020/12/10 03:10:13;;;;;;;14.60;7.58;;;;;;;1.62;50.65;101600.77;1770813;80;21699;-81
2020/12/10 03:12:42;;;;;;;12.90;7.47;;;;;;;1.65;50.49;101608.55;1771625;80;21386;-82
2020/12/10 03:15:10;;;;;;;17.52;8.70;;;;;;;1.69;50.41;101598.24;1771859;81;21066;-84
2020/12/10 03:17:38;;;;;;;18.05;8.78;;;;;;;1.68;50.35;101591.22;1771801;81;21071;-81
2020/12/10 03:20:06;;;;;;;18.42;8.03;;;;;;;1.68;50.32;101594.75;1771682;81;21816;-82
2020/12/10 03:22:34;;;;;;;12.85;7.37;;;;;;;1.67;50.37;101586.41;1771734;80;21211;-84
2020/12/10 03:25:02;;;;;;;16.93;8.95;;;;;;;1.65;50.40;101581.68;1771767;81;21071;-83
2020/12/10 03:27:29;;;;;;;17.92;8.25;;;;;;;1.67;50.53;101573.20;1771611;80;21083;-82
2020/12/10 03:29:58;;;;;;;17.57;7.70;;;;;;;1.76;50.47;101576.72;1772179;81;21118;-79
2020/12/10 03:32:26;;;;;;;13.45;7.08;;;;;;;1.83;50.30;101574.66;1773281;81;21367;-80
2020/12/10 03:34:54;;;;;;;14.87;7.65;;;;;;;1.86;50.31;101569.20;1772882;81;21161;-81
2020/12/10 03:37:22;;;;;;;15.85;8.15;;;;;;;1.87;50.17;101565.66;1772872;81;21059;-80
2020/12/10 03:39:50;;;;;;;15.65;8.58;;;;;;;1.84;50.27;101559.66;1773247;81;21059;-81
2020/12/10 03:42:17;;;;;;;17.57;9.00;;;;;;;1.81;50.31;101554.05;1772724;81;21557;-83
2020/12/10 03:44:45;;;;;;;18.60;8.23;;;;;;;1.79;50.36;101563.84;1767853;80;22240;-80
2020/12/10 03:47:13;;;;;;;16.48;7.78;;;;;;;1.78;50.59;101568.27;1750005;82;21219;-81
2020/12/10 03:49:41;;;;;;;12.60;7.15;;;;;;;1.75;50.82;101555.67;1749757;82;21183;-82
2020/12/10 03:52:09;;;;;;;15.28;8.55;;;;;;;1.73;51.00;101550.95;1750240;82;21155;-81
2020/12/10 03:54:37;;;;;;;9.58;5.97;;;;;;;1.75;50.99;101550.39;1750001;82;21198;-82
2020/12/10 03:57:05;;;;;;;19.25;8.43;;;;;;;1.71;50.98;101548.36;1751618;82;21548;-80
2020/12/10 03:59:33;;;;;;;16.17;8.63;;;;;;;1.63;51.16;101547.02;1751666;82;21534;-83
2020/12/10 04:02:01;;;;;;;14.25;7.83;;;;;;;1.61;51.32;101546.25;1751145;82;21147;-82
2020/12/10 04:04:30;;;;;;;13.72;7.05;;;;;;;1.65;51.41;101542.06;1751923;82;21112;-82
2020/12/10 04:06:58;;;;;;;11.68;6.65;;;;;;;1.70;51.41;101540.05;1751806;82;21618;-82
2020/12/10 04:09:26;;;;;;;16.32;7.85;;;;;;;1.75;51.35;101542.47;1750270;82;21356;-84
2020/12/10 04:11:54;;;;;;;13.25;6.62;;;;;;;1.74;51.34;101542.08;1780222;80;21628;-82
2020/12/10 04:14:22;;;;;;;12.05;7.00;;;;;;;1.73;51.42;101536.42;1781471;80;21035;-85
2020/12/10 04:16:50;;;;;;;12.98;7.40;;;;;;;1.72;51.60;101533.36;1781276;80;21046;-83
2020/12/10 04:19:18;;;;;;;18.12;8.08;;;;;;;1.75;51.68;101529.27;1782014;80;21098;-80
2020/12/10 04:21:46;;;;;;;20.82;8.83;;;;;;;1.82;51.75;101541.69;1780351;80;22239;-81
2020/12/10 04:24:14;;;;;;;15.68;8.13;;;;;;;1.88;51.71;101544.90;1780238;80;21188;-80
2020/12/10 04:26:42;;;;;;;14.47;8.55;;;;;;;1.93;51.36;101541.56;1780737;80;21146;-84
2020/12/10 04:29:13;;;;;;;19.60;9.10;;;;;;;1.89;51.02;101533.39;1779977;80;21165;-80
2020/12/10 04:31:41;;;;;;;19.17;9.45;;;;;;;1.89;50.82;101536.03;1780849;80;21034;-80
2020/12/10 04:34:09;;;;;;;21.87;9.93;;;;;;;1.94;50.56;101532.70;1780481;80;21445;-81
2020/12/10 04:36:37;;;;;;;19.98;9.23;;;;;;;1.93;50.42;101528.34;1781133;80;21129;-80
2020/12/10 04:39:06;;;;;;;18.42;9.58;;;;;;;1.94;50.28;101523.92;1782394;80;21550;-80
2020/12/10 04:41:35;;;;;;;22.48;11.08;;;;;;;1.93;50.16;101529.67;1750123;81;21416;-80
2020/12/10 04:44:03;;;;;;;21.97;10.88;;;;;;;1.94;50.07;101522.59;1739884;81;21205;-78
2020/12/10 04:46:31;;;;;;;20.88;10.98;;;;;;;1.96;49.97;101528.20;1766890;81;21865;-82
2020/12/10 04:49:00;;;;;;;22.45;11.78;;;;;;;1.91;49.91;101529.38;1768138;80;21664;-80
2020/12/10 04:51:28;;;;;;;32.73;13.30;;;;;;;1.89;49.87;101530.75;1755832;80;21190;-80
2020/12/10 04:53:57;;;;;;;25.90;11.88;;;;;;;1.87;49.83;101537.91;1763604;80;21217;-81
2020/12/10 04:56:24;;;;;;;24.00;10.95;;;;;;;1.84;49.89;101539.84;1759145;80;21633;-84
2020/12/10 04:58:57;;;;;;;29.07;14.18;;;;;;;1.80;49.88;101545.73;1749552;81;21192;-81
2020/12/10 05:01:27;;;;;;;23.57;11.40;;;;;;;1.74;49.85;101539.44;1770714;80;21126;-78
2020/12/10 05:03:56;;;;;;;24.37;12.45;;;;;;;1.71;49.96;101547.50;1743421;81;21214;-78
2020/12/10 05:06:24;;;;;;;27.17;15.68;;;;;;;1.66;49.92;101544.23;1737588;82;21214;-79
2020/12/10 05:08:52;;;;;;;36.80;21.05;;;;;;;1.57;49.95;101547.33;1741507;81;21182;-80
2020/12/10 05:11:36;;;;;;;40.45;26.93;;;;;;;1.53;49.93;101546.61;1764831;81;21302;-80
2020/12/10 05:14:04;;;;;;;39.00;23.47;;;;;;;1.49;49.86;101549.85;1750610;81;21169;-80
2020/12/10 05:16:32;;;;;;;40.08;22.25;;;;;;;1.47;49.75;101546.45;1755197;81;21091;-78
2020/12/10 05:19:19;;;;;;;36.23;21.77;;;;;;;1.46;49.74;101545.20;1771064;80;21173;-82
2020/12/10 05:22:05;;;;;;;33.20;19.30;;;;;;;1.42;49.59;101545.81;1766340;80;21607;-78
2020/12/10 05:24:33;;;;;;;25.95;14.05;;;;;;;1.31;49.57;101549.41;1748464;81;21425;-79
2020/12/10 05:27:21;;;;;;;32.58;16.52;;;;;;;1.22;49.61;101544.56;1750324;81;21177;-81
2020/12/10 05:29:51;;;;;;;26.02;16.85;;;;;;;1.13;49.87;101544.98;1749025;81;21177;-80
2020/12/10 05:32:42;;;;;;;29.75;17.15;;;;;;;1.11;49.86;101547.70;1719377;82;21210;-80
2020/12/10 05:35:23;;;;;;;46.65;23.92;;;;;;;1.09;49.78;101536.38;1740246;82;21166;-80
2020/12/10 05:37:53;;;;;;;56.05;28.65;;;;;;;1.15;49.77;101537.88;1739328;82;21414;-82
2020/12/10 05:40:21;;;;;;;51.90;28.12;;;;;;;1.22;49.79;101541.45;1756202;81;21229;-82
2020/12/10 05:42:51;;;;;;;51.58;27.13;;;;;;;1.31;49.74;101538.00;1760732;80;21167;-81
2020/12/10 05:45:23;;;;;;;46.15;23.05;;;;;;;1.37;49.62;101531.98;1769891;81;21122;-80
2020/12/10 05:47:55;;;;;;;41.55;19.67;;;;;;;1.45;49.53;101531.16;1757706;80;21165;-82
2020/12/10 05:50:27;;;;;;;38.10;18.82;;;;;;;1.55;49.52;101523.64;1769557;81;21375;-80
2020/12/10 05:53:08;;;;;;;37.55;19.35;;;;;;;1.65;49.44;101526.22;1750656;81;21177;-80
2020/12/10 05:55:41;;;;;;;44.35;19.92;;;;;;;1.73;49.33;101528.50;1737336;81;21157;-80
2020/12/10 05:58:10;;;;;;;31.48;14.63;;;;;;;1.77;49.33;101532.67;1739686;80;21181;-81
2020/12/10 06:00:38;;;;;;;37.03;18.37;;;;;;;1.78;49.44;101544.50;1743071;81;21185;-80
2020/12/10 06:03:06;;;;;;;38.80;19.42;;;;;;;1.77;49.46;101543.23;1763354;81;21366;-78
2020/12/10 06:05:34;;;;;;;35.45;18.67;;;;;;;1.69;49.61;101541.45;1744511;80;21716;-78
2020/12/10 06:08:04;;;;;;;37.28;18.62;;;;;;;1.65;49.78;101534.14;1731610;80;21952;-79
2020/12/10 06:10:36;;;;;;;39.48;21.02;;;;;;;1.65;50.00;101535.93;1751382;80;21384;-80
2020/12/10 06:13:04;;;;;;;38.90;19.05;;;;;;;1.69;50.11;101528.25;1749842;81;21288;-80
2020/12/10 06:15:33;;;;;;;35.73;16.85;;;;;;;1.78;50.12;101525.16;1747023;81;21794;-81
2020/12/10 06:18:12;;;;;;;29.57;14.43;;;;;;;1.88;50.05;101525.09;1748253;80;21189;-78
2020/12/10 06:20:48;;;;;;;30.50;14.87;;;;;;;1.93;49.94;101522.21;1752176;81;21169;-79
2020/12/10 06:23:34;;;;;;;24.07;13.03;;;;;;;1.89;49.96;101516.22;1753388;80;21448;-80
2020/12/10 06:26:27;;;;;;;24.57;12.15;;;;;;;1.79;50.23;101525.55;1756776;80;21077;-79
2020/12/10 06:29:19;;;;;;;29.45;12.00;;;;;;;1.74;50.53;101519.63;1735477;82;21376;-78
2020/12/10 06:32:14;;;;;;;27.75;14.73;;;;;;;1.80;50.57;101519.32;1742330;81;21136;-79
2020/12/10 06:34:51;;;;;;;34.55;17.45;;;;;;;1.70;50.82;101512.79;1815965;78;21195;-79
2020/12/10 06:40:40;;;;;;;28.52;16.32;;;;;;;1.78;50.95;101500.06;1863933;76;23227;-79
2020/12/10 06:43:09;;;;;;;30.23;13.78;;;;;;;1.67;51.18;101499.72;1841990;76;21070;-78
2020/12/10 06:45:42;;;;;;;25.20;13.55;;;;;;;1.64;51.33;101507.35;1849371;75;21194;-78
2020/12/10 06:48:11;;;;;;;26.40;13.55;;;;;;;1.61;51.52;101518.52;1802528;77;21130;-78
2020/12/10 06:50:40;;;;;;;30.10;13.98;;;;;;;1.57;51.68;101520.92;1784131;79;21094;-78
2020/12/10 06:53:22;;;;;;;44.25;18.15;;;;;;;1.53;51.91;101522.38;1788520;80;21070;-79
2020/12/10 06:56:02;;;;;;;30.12;15.45;;;;;;;1.50;52.15;101515.95;1789634;79;21485;-79
2020/12/10 06:58:39;;;;;;;49.38;21.73;;;;;;;1.56;52.31;101509.97;1819113;78;21372;-80
2020/12/10 07:01:29;;;;;;;42.45;17.12;;;;;;;1.60;52.44;101514.17;1810173;77;22130;-80
2020/12/10 07:07:12;;;;;;;28.87;13.88;;;;;;;1.60;52.83;101510.22;1783816;80;21164;-77
2020/12/10 07:09:58;;;;;;;27.15;13.95;;;;;;;1.51;53.07;101509.73;1780755;79;21197;-80
2020/12/10 07:12:33;;;;;;;26.93;13.30;;;;;;;1.53;53.34;101509.64;1816133;77;21390;-79
2020/12/10 07:15:26;;;;;;;31.35;16.02;;;;;;;1.51;53.48;101495.20;1816316;78;21118;-79
2020/12/10 07:17:50;;;;;;;27.82;14.15;;;;;;;1.71;53.33;101490.72;1814653;78;21558;-78
2020/12/10 07:20:18;;;;;;;25.23;12.37;;;;;;;1.82;53.16;101501.63;1812968;77;21509;-79
2020/12/10 07:22:46;;;;;;;20.05;9.88;;;;;;;1.86;53.06;101497.87;1810409;77;21107;-80
2020/12/10 07:25:20;;;;;;;26.35;12.25;;;;;;;1.92;53.02;101504.19;1810460;77;21377;-81
2020/12/10 07:27:49;;;;;;;30.40;13.85;;;;;;;1.95;52.98;101513.29;1768246;79;21149;-78
2020/12/10 07:30:18;;;;;;;23.15;12.15;;;;;;;1.96;53.01;101499.14;1795239;79;21093;-81
2020/12/10 07:32:48;;;;;;;24.30;11.63;;;;;;;2.13;52.88;101510.63;1798049;79;21173;-78
2020/12/10 07:35:35;;;;;;;26.40;13.67;;;;;;;2.19;52.74;101505.05;1768343;79;21337;-80
2020/12/10 07:38:08;;;;;;;25.55;12.90;;;;;;;2.13;52.75;101489.01;1812570;78;22129;-79
2020/12/10 07:40:37;;;;;;;34.53;16.32;;;;;;;2.13;52.83;101498.73;1778888;79;21748;-80
2020/12/10 07:45:55;;;;;;;25.25;13.22;;;;;;;2.15;53.14;101506.13;1861338;75;22696;-79
2020/12/10 07:48:24;;;;;;;28.27;12.88;;;;;;;2.08;53.38;101498.12;1776289;77;21291;-81
2020/12/10 07:50:52;;;;;;;26.12;13.40;;;;;;;2.08;53.50;101499.44;1842035;76;21390;-80
2020/12/10 07:53:48;;;;;;;;;;;;;;;;;;;;;
2020/12/10 08:00:28;;;;;;;29.42;14.45;;;;;;;1.95;54.33;101482.02;1688229;80;21153;-79
2020/12/10 08:03:24;;;;;;;28.85;14.07;;;;;;;1.96;54.60;101467.91;1732065;81;21154;-79
2020/12/10 08:06:10;;;;;;;30.85;14.05;;;;;;;1.97;54.79;101460.36;1729707;80;21444;-81
2020/12/10 08:08:58;;;;;;;;;;;;;;;;;;;;;
2020/12/10 08:11:26;;;;;;;35.20;17.48;;;;;;;1.98;55.52;101431.67;1855194;75;22950;-81
2020/12/10 08:14:09;;;;;;;;;;;;;;;1.98;55.58;101434.31;1821036;77;21822;-82
2020/12/10 08:16:47;;;;;;;31.73;13.72;;;;;;;2.06;55.70;101456.39;1840179;76;22059;-77
2020/12/10 08:19:38;;;;;;;30.75;15.25;;;;;;;2.07;55.83;101438.28;1848132;76;21113;-81
2020/12/10 08:22:20;;;;;;;31.23;15.15;;;;;;;2.07;55.98;101434.31;1831639;76;21121;-80
2020/12/10 08:24:59;;;;;;;38.45;17.60;;;;;;;2.14;56.02;101435.71;1776232;78;21103;-77
2020/12/10 08:31:10;;;;;;;27.50;11.55;;;;;;;2.24;56.00;101422.39;1868040;75;22789;-82
2020/12/10 08:34:09;;;;;;;;;;;;;;;;;;;;;
2020/12/10 08:37:20;;;;;;;25.88;12.90;;;;;;;2.33;55.34;101427.19;1804877;77;26971;-80
2020/12/10 08:54:45;;;;;;;24.55;11.22;;;;;;;2.43;54.76;101424.44;1756869;78;23433;-78
2020/12/10 08:57:34;;;;;;;33.42;14.93;;;;;;;2.39;54.74;101424.68;1772701;79;21167;-79
2020/12/10 09:00:32;;;;;;;27.20;14.97;;;;;;;2.38;54.65;101428.27;1751380;80;21263;-81
2020/12/10 09:03:29;;;;;;;34.10;17.30;;;;;;;2.40;54.66;101419.30;1822455;77;26344;-80
2020/12/10 09:06:00;;;;;;;28.67;13.50;;;;;;;2.28;54.68;101434.05;1797194;78;22544;-81
2020/12/10 09:08:46;;;;;;;31.42;14.47;;;;;;;2.23;54.85;101433.44;1799349;78;22179;-80
2020/12/10 09:11:18;;;;;;;38.70;18.15;;;;;;;2.21;54.83;101443.22;1797047;78;21779;-79
2020/12/10 09:17:27;;;;;;;33.75;14.63;;;;;;;2.06;55.24;101429.97;1860250;74;29945;-79
2020/12/10 09:20:07;;;;;;;33.53;15.35;;;;;;;1.98;55.33;101428.56;1801755;76;21756;-81
2020/12/10 09:22:43;;;;;;;32.60;13.95;;;;;;;1.89;55.39;101415.83;1785698;78;22149;-84
2020/12/10 09:25:29;;;;;;;;;;;;;;;;;;;;;
2020/12/10 09:28:10;;;;;;;24.15;11.68;;;;;;;1.85;55.63;101430.59;1870491;74;22623;-79
2020/12/10 09:30:40;;;;;;;31.42;13.45;;;;;;;1.81;55.69;101433.00;1841015;75;21905;-78
2020/12/10 09:33:14;;;;;;;23.83;10.20;;;;;;;1.81;55.67;101423.28;1821456;77;21370;-80
2020/12/10 09:35:46;;;;;;;29.92;13.85;;;;;;;1.83;55.69;101416.63;1769386;78;21173;-79
2020/12/10 09:38:30;;;;;;;26.77;12.68;;;;;;;1.86;55.64;101419.94;1787170;76;21184;-79
2020/12/10 09:41:33;;;;;;;;;;;;;;;;;;;;;
2020/12/10 09:44:53;;;;;;;25.52;12.70;;;;;;;1.88;55.58;101422.52;1796367;78;21112;-80
2020/12/10 10:01:19;;;;;;;29.40;12.90;;;;;;;1.81;56.13;101394.70;1725812;81;21228;-77
2020/12/10 10:03:49;;;;;;;29.12;12.78;;;;;;;1.83;56.24;101406.91;1721770;81;21652;-78
2020/12/10 10:06:29;;;;;;;24.02;11.28;;;;;;;1.81;56.20;101408.76;1727388;82;21602;-77
2020/12/10 10:08:59;;;;;;;27.32;13.50;;;;;;;1.80;56.28;101409.70;1744996;81;21117;-77
2020/12/10 10:11:30;;;;;;;26.45;13.68;;;;;;;1.82;56.29;101411.81;1748660;81;21581;-79
2020/12/10 10:13:58;;;;;;;22.58;10.75;;;;;;;1.86;56.28;101419.09;1749605;81;21680;-78
2020/12/10 10:19:17;;;;;;;22.90;11.28;;;;;;;1.97;56.32;101392.98;1867833;75;22548;-78
2020/12/10 10:21:46;;;;;;;22.50;10.32;;;;;;;2.01;56.27;101401.14;1834695;77;21137;-77
2020/12/10 10:24:15;;;;;;;26.23;12.05;;;;;;;2.09;56.19;101398.08;1833933;77;21192;-77
2020/12/10 10:26:49;;;;;;;22.93;10.90;;;;;;;2.15;55.93;101403.05;1839144;76;21121;-77
2020/12/10 10:29:20;;;;;;;26.48;11.10;;;;;;;2.23;55.70;101399.55;1833377;76;21178;-78
2020/12/10 10:31:53;;;;;;;26.48;11.55;;;;;;;2.26;55.41;101410.78;1839921;77;22510;-78
2020/12/10 10:34:21;;;;;;;25.60;11.60;;;;;;;2.20;55.38;101394.41;1844164;76;21188;-79
2020/12/10 10:36:50;;;;;;;21.07;10.32;;;;;;;2.12;55.41;101390.00;1829716;76;21474;-81
2020/12/10 10:39:18;;;;;;;20.05;9.73;;;;;;;2.06;55.53;101390.33;1831254;76;21188;-81
2020/12/10 10:41:48;;;;;;;27.95;12.20;;;;;;;2.05;55.52;101384.19;1797542;78;21217;-78
2020/12/10 10:44:16;;;;;;;21.65;10.68;;;;;;;2.00;55.59;101381.80;1770474;79;21188;-79
2020/12/10 10:47:01;;;;;;;22.80;11.40;;;;;;;1.81;56.03;101378.85;1765677;79;21165;-81
2020/12/10 10:49:31;;;;;;;26.15;11.88;;;;;;;1.82;56.13;101381.44;1769586;79;21819;-80
2020/12/10 10:52:00;;;;;;;26.07;13.20;;;;;;;1.88;56.21;101378.94;1785318;79;21058;-78
2020/12/10 10:54:34;;;;;;;25.82;13.13;;;;;;;1.94;56.12;101388.70;1783561;79;21200;-79
2020/12/10 10:57:26;;;;;;;28.17;14.28;;;;;;;1.97;56.05;101395.16;1786595;79;21549;-79
2020/12/10 10:59:50;;;;;;;32.05;16.02;;;;;;;1.90;55.97;101391.58;1764826;80;21105;-79
2020/12/10 11:03:05;;;;;;;;;;;;;;;;;;;;;
2020/12/10 11:05:48;;;;;;;23.70;11.55;;;;;;;1.90;56.21;101377.90;1885594;73;22708;-79
2020/12/10 11:08:45;;;;;;;23.83;11.88;;;;;;;1.91;56.03;101382.27;1859832;75;21419;-81
2020/12/10 11:11:31;;;;;;;21.27;9.83;;;;;;;1.92;56.02;101387.94;1700630;82;21786;-78
2020/12/10 11:13:59;;;;;;;20.55;9.95;;;;;;;1.97;55.97;101392.52;1704426;82;21216;-79
2020/12/10 11:16:33;;;;;;;16.80;9.88;;;;;;;1.72;56.49;101378.86;1702472;82;21232;-79
2020/12/10 11:19:01;;;;;;;16.15;7.97;;;;;;;1.70;56.56;101396.11;1707812;82;21249;-81
2020/12/10 11:21:29;;;;;;;28.32;12.20;;;;;;;1.72;56.41;101402.16;1699575;83;21205;-81
2020/12/10 11:39:59;;;;;;;27.52;11.05;;;;;;;1.64;56.59;101387.66;1517436;92;21279;-81
2020/12/10 11:52:59;;;;;;;30.25;14.90;;;;;;;1.85;56.47;101390.50;1746518;78;39119;-78
2020/12/10 11:55:29;;;;;;;25.50;12.58;;;;;;;1.82;56.57;101380.55;1734798;81;21592;-78
2020/12/10 11:57:57;;;;;;;24.12;11.70;;;;;;;1.85;56.64;101377.30;1737904;82;22484;-83
2020/12/10 12:00:26;;;;;;;24.15;10.78;;;;;;;1.85;56.65;101365.87;1732904;82;21776;-81
2020/12/10 12:03:01;;;;;;;22.07;10.78;;;;;;;1.84;56.80;101361.06;1820976;77;22659;-80
2020/12/10 12:05:31;;;;;;;22.62;11.88;;;;;;;1.84;56.79;101365.50;1784701;79;21534;-81
2020/12/10 12:08:03;;;;;;;31.23;11.68;;;;;;;1.87;56.68;101366.66;1779954;79;21210;-78
2020/12/10 12:10:38;;;;;;;29.18;12.10;;;;;;;1.87;56.61;101374.12;1785539;79;21189;-80
2020/12/10 12:13:10;;;;;;;28.70;14.40;;;;;;;1.77;56.71;101367.58;1785652;79;21209;-83
2020/12/10 12:15:45;;;;;;;22.58;12.05;;;;;;;1.68;56.87;101356.17;1786259;79;21609;-80
2020/12/10 12:18:20;;;;;;;25.23;12.60;;;;;;;1.65;57.06;101356.35;1782806;79;21047;-78
2020/12/10 12:20:52;;;;;;;26.80;13.43;;;;;;;1.68;57.18;101346.49;1762155;79;21119;-82
2020/12/10 12:23:29;;;;;;;24.20;13.38;;;;;;;1.70;57.32;101353.86;1768099;79;21193;-80
2020/12/10 12:27:05;;;;;;;26.07;14.13;;;;;;;1.71;57.47;101365.27;1707518;82;21220;-84
2020/12/10 12:30:14;;;;;;;27.00;14.05;;;;;;;1.75;57.63;101365.50;1855728;76;23138;-83
2020/12/10 12:32:58;;;;;;;24.37;12.40;;;;;;;1.71;57.76;101377.16;1802919;78;21148;-81
2020/12/10 12:35:58;;;;;;;27.20;13.25;;;;;;;1.73;57.83;101372.66;1780132;78;21196;-82
2020/12/10 12:39:29;;;;;;;;;;;;;;;;;;;;;
2020/12/10 12:42:09;;;;;;;28.55;14.28;;;;;;;1.80;58.04;101388.56;1798413;77;21219;-81
2020/12/10 12:44:47;;;;;;;31.45;14.78;;;;;;;1.73;58.23;101384.55;1814760;78;21177;-81
2020/12/10 12:50:39;;;;;;;;;;;;;;;1.68;58.67;101382.14;1807404;77;22667;-82
2020/12/10 12:53:08;;;;;;;28.30;14.33;;;;;;;1.73;58.72;101375.31;1769801;78;20301;-82
2020/12/10 12:55:41;;;;;;;29.67;13.83;;;;;;;1.83;58.65;101392.84;1804854;78;21163;-81
2020/12/10 12:58:10;;;;;;;31.40;15.30;;;;;;;1.89;58.59;101385.45;1720405;81;21184;-79
2020/12/10 13:00:44;;;;;;;34.35;15.13;;;;;;;1.97;58.58;101381.95;1709529;81;21191;-82
2020/12/10 13:03:14;;;;;;;33.88;15.93;;;;;;;2.03;58.48;101384.25;1713696;81;21311;-83
2020/12/10 13:05:47;;;;;;;34.10;14.58;;;;;;;2.08;58.48;101377.88;1754786;78;21244;-78
2020/12/10 13:08:36;;;;;;;26.70;14.87;;;;;;;2.11;58.48;101369.32;1740587;80;21250;-81
2020/12/10 13:22:04;;;;;;;29.92;13.03;;;;;;;1.72;59.39;101369.14;1919230;74;24450;-79
2020/12/10 13:24:47;;;;;;;32.27;14.60;;;;;;;1.72;59.52;101376.22;1875079;75;21196;-79
2020/12/10 13:27:41;;;;;;;28.52;13.98;;;;;;;1.73;59.56;101373.52;1884076;75;21489;-80
2020/12/10 13:30:29;;;;;;;30.77;12.63;;;;;;;1.79;59.51;101373.66;1818705;77;21183;-77
2020/12/10 13:33:14;;;;;;;30.43;14.50;;;;;;;1.97;59.26;101400.91;1857184;75;21154;-78
2020/12/10 13:35:58;;;;;;;33.28;16.17;;;;;;;2.01;59.04;101378.21;1884706;75;21551;-79